createdAt,value
2023-02-14T00:01:28.588Z,1.81
2023-02-14T00:04:00.906Z,1.79
2023-02-14T00:06:29.805Z,1.18
2023-02-14T00:08:57.934Z,0.39
2023-02-14T00:11:25.806Z,1.27
2023-02-14T00:14:11.027Z,1.05
2023-02-14T00:16:38.888Z,-0.04
2023-02-14T00:19:08.253Z,1.22
2023-02-14T00:21:37.929Z,1.09
2023-02-14T00:24:07.507Z,0.67
2023-02-14T00:26:35.365Z,1.19
2023-02-14T00:29:03.479Z,1.41
2023-02-14T00:31:31.342Z,1.43
2023-02-14T00:33:59.211Z,1.34
2023-02-14T00:36:30.776Z,1.10
2023-02-14T00:38:58.735Z,1.50
2023-02-14T00:41:26.573Z,1.42
2023-02-14T00:43:55.121Z,1.55
2023-02-14T00:46:25.585Z,1.60
2023-02-14T00:48:53.909Z,1.74
2023-02-14T00:51:22.520Z,1.74
2023-02-14T00:53:53.155Z,1.52
2023-02-14T00:56:21.868Z,1.43
2023-02-14T00:58:50.058Z,1.48
2023-02-14T01:01:19.744Z,1.45
2023-02-14T01:03:48.444Z,1.17
2023-02-14T01:06:17.101Z,0.44
2023-02-14T01:08:45.326Z,1.42
2023-02-14T01:11:18.293Z,1.25
2023-02-14T01:13:48.041Z,1.18
2023-02-14T01:16:19.058Z,1.01
2023-02-14T01:18:47.289Z,0.86
2023-02-14T01:21:20.326Z,0.45
2023-02-14T01:23:51.508Z,1.13
2023-02-14T01:26:22.366Z,1.06
2023-02-14T01:28:50.844Z,0.97
2023-02-14T01:31:20.953Z,1.01
2023-02-14T01:33:49.586Z,1.14
2023-02-14T01:36:19.904Z,1.24
2023-02-14T01:38:48.332Z,0.93
2023-02-14T01:41:16.127Z,0.98
2023-02-14T01:43:58.031Z,1.11
2023-02-14T01:46:27.945Z,1.24
2023-02-14T01:49:00.397Z,1.23
2023-02-14T01:51:30.494Z,1.02
2023-02-14T01:54:00.342Z,1.23
2023-02-14T01:56:35.025Z,0.36
2023-02-14T01:59:08.744Z,1.14
2023-02-14T02:01:36.933Z,1.10
2023-02-14T02:04:11.215Z,0.80
2023-02-14T02:06:42.878Z,0.39
2023-02-14T02:09:16.276Z,0.92
2023-02-14T02:11:44.908Z,0.85
2023-02-14T02:14:19.925Z,0.84
2023-02-14T02:17:04.423Z,0.60
2023-02-14T02:20:09.490Z,0.98
2023-02-14T02:23:11.705Z,1.17
2023-02-14T02:26:04.530Z,1.04
2023-02-14T02:29:01.851Z,0.85
2023-02-14T02:31:55.130Z,0.69
2023-02-14T02:34:39.055Z,0.68
2023-02-14T02:37:30.915Z,0.67
2023-02-14T02:40:12.022Z,0.63
2023-02-14T02:42:50.607Z,0.46
2023-02-14T02:45:27.403Z,0.38
2023-02-14T02:48:06.127Z,0.47
2023-02-14T02:50:56.528Z,0.23
2023-02-14T02:53:33.445Z,-0.26
2023-02-14T02:56:22.453Z,0.48
2023-02-14T02:58:56.940Z,0.25
2023-02-14T03:01:29.375Z,0.21
2023-02-14T03:04:17.262Z,-0.09
2023-02-14T03:06:45.591Z,0.28
2023-02-14T03:09:55.375Z,0.52
2023-02-14T03:12:45.300Z,0.51
2023-02-14T03:15:22.607Z,0.43
2023-02-14T03:18:02.977Z,0.45
2023-02-14T03:20:38.398Z,0.15
2023-02-14T03:23:14.329Z,-0.04
2023-02-14T03:25:53.183Z,-0.90
2023-02-14T03:28:30.509Z,0.17
2023-02-14T03:31:04.368Z,-0.06
2023-02-14T03:33:41.534Z,-0.01
2023-02-14T03:36:15.649Z,-0.05
2023-02-14T03:38:48.175Z,0.11
2023-02-14T03:41:22.244Z,0.17
2023-02-14T03:43:54.399Z,0.21
2023-02-14T03:46:29.635Z,0.12
2023-02-14T03:49:01.652Z,-0.02
2023-02-14T03:51:34.268Z,0.02
2023-02-14T03:54:04.156Z,0.07
2023-02-14T03:56:39.807Z,0.00
2023-02-14T03:59:15.300Z,-0.06
2023-02-14T04:01:48.212Z,-0.13
2023-02-14T04:04:21.230Z,-0.25
2023-02-14T04:06:49.448Z,-0.41
2023-02-14T04:09:17.323Z,-0.57
2023-02-14T04:11:50.420Z,-0.40
2023-02-14T04:14:18.574Z,-0.79
2023-02-14T04:17:04.026Z,-0.50
2023-02-14T04:19:31.870Z,-0.49
2023-02-14T04:21:59.736Z,-0.44
2023-02-14T04:24:27.741Z,-0.31
2023-02-14T04:27:10.708Z,-0.19
2023-02-14T04:29:39.847Z,-0.25
2023-02-14T04:32:10.071Z,-0.07
2023-02-14T04:34:39.144Z,-0.07
2023-02-14T04:37:08.060Z,-0.83
2023-02-14T04:39:36.463Z,-0.05
2023-02-14T04:42:06.815Z,-0.04
2023-02-14T04:44:35.052Z,0.09
2023-02-14T04:47:03.004Z,-0.16
2023-02-14T04:49:30.997Z,-1.41
2023-02-14T04:51:59.185Z,0.01
2023-02-14T04:54:27.220Z,-0.03
2023-02-14T04:56:55.093Z,0.04
2023-02-14T04:59:25.068Z,-0.89
2023-02-14T05:01:53.033Z,-0.04
2023-02-14T05:04:21.381Z,-0.05
2023-02-14T05:06:49.527Z,-0.49
2023-02-14T05:09:17.501Z,-0.13
2023-02-14T05:11:45.704Z,-0.18
2023-02-14T05:14:14.100Z,-0.28
2023-02-14T05:16:43.463Z,-0.25
2023-02-14T05:19:11.496Z,-0.43
2023-02-14T05:21:39.452Z,-0.22
2023-02-14T05:24:07.542Z,-0.32
2023-02-14T05:26:35.482Z,-1.35
2023-02-14T05:29:03.282Z,-0.43
2023-02-14T05:31:31.231Z,-0.36
2023-02-14T05:34:00.535Z,-0.31
2023-02-14T05:36:28.451Z,-0.29
2023-02-14T05:38:56.262Z,-0.27
2023-02-14T05:41:24.241Z,-0.33
2023-02-14T05:43:52.420Z,-0.39
2023-02-14T05:46:20.348Z,-0.66
2023-02-14T05:48:48.258Z,-0.69
2023-02-14T05:51:17.463Z,-0.90
2023-02-14T05:53:45.478Z,-0.87
2023-02-14T05:56:13.328Z,-0.80
2023-02-14T05:58:41.228Z,-0.63
2023-02-14T06:01:09.467Z,-0.71
2023-02-14T06:03:37.322Z,-0.92
2023-02-14T06:06:05.618Z,-0.83
2023-02-14T06:08:34.875Z,-0.88
2023-02-14T06:11:02.867Z,-0.89
2023-02-14T06:13:30.834Z,-0.86
2023-02-14T06:15:58.734Z,-0.78
2023-02-14T06:18:29.548Z,-0.79
2023-02-14T06:20:58.130Z,-1.38
2023-02-14T06:23:26.471Z,-0.84
2023-02-14T06:25:56.146Z,-1.67
2023-02-14T06:28:24.012Z,-0.89
2023-02-14T06:30:52.494Z,-0.92
2023-02-14T06:33:20.690Z,-0.83
2023-02-14T06:35:48.518Z,-0.71
2023-02-14T06:38:16.464Z,-0.72
2023-02-14T06:40:44.584Z,-0.63
2023-02-14T06:43:14.015Z,-0.55
2023-02-14T06:45:43.608Z,-0.51
2023-02-14T06:48:11.583Z,-0.49
2023-02-14T06:50:39.543Z,-0.46
2023-02-14T06:53:07.552Z,-0.42
2023-02-14T06:55:35.403Z,-0.86
2023-02-14T06:58:03.524Z,-0.67
2023-02-14T07:00:33.290Z,-1.15
2023-02-14T07:03:01.223Z,-0.44
2023-02-14T07:05:29.509Z,-0.48
2023-02-14T07:07:57.348Z,-0.66
2023-02-14T07:10:25.328Z,-0.40
2023-02-14T07:12:53.166Z,-1.08
2023-02-14T07:15:21.222Z,-0.31
2023-02-14T07:17:50.689Z,-0.35
2023-02-14T07:20:19.495Z,-0.29
2023-02-14T07:22:47.647Z,-0.37
2023-02-14T07:25:15.562Z,-0.39
2023-02-14T07:27:43.529Z,-0.46
2023-02-14T07:30:12.854Z,-0.56
2023-02-14T07:32:41.351Z,-0.56
2023-02-14T07:35:11.351Z,-0.44
2023-02-14T07:37:39.152Z,-0.33
2023-02-14T07:40:14.647Z,-0.32
2023-02-14T07:42:43.756Z,-0.44
2023-02-14T07:45:21.747Z,-0.34
2023-02-14T07:47:51.476Z,-0.20
2023-02-14T07:50:21.679Z,-0.01
2023-02-14T07:52:49.654Z,-0.02
2023-02-14T07:55:17.726Z,-0.06
2023-02-14T07:57:45.605Z,0.15
2023-02-14T08:00:14.992Z,0.13
2023-02-14T08:02:42.983Z,0.09
2023-02-14T08:05:11.390Z,0.14
2023-02-14T08:07:40.628Z,0.12
2023-02-14T08:10:10.524Z,0.13
2023-02-14T08:13:02.022Z,0.42
2023-02-14T08:15:48.794Z,0.36
2023-02-14T08:18:18.063Z,0.61
2023-02-14T08:20:46.105Z,0.97
2023-02-14T08:23:15.564Z,1.10
2023-02-14T08:25:43.566Z,1.25
2023-02-14T08:28:13.778Z,1.36
2023-02-14T08:30:42.610Z,1.41
2023-02-14T08:33:10.638Z,1.63
2023-02-14T08:35:38.836Z,1.74
2023-02-14T08:38:07.571Z,1.89
2023-02-14T08:40:37.601Z,1.98
2023-02-14T08:43:06.044Z,1.46
2023-02-14T08:45:34.333Z,1.94
2023-02-14T08:48:04.221Z,2.25
2023-02-14T08:50:32.288Z,2.45
2023-02-14T08:53:00.483Z,2.60
2023-02-14T08:55:28.744Z,2.43
2023-02-14T08:57:58.747Z,2.53
2023-02-14T09:00:27.145Z,2.61
2023-02-14T09:02:55.595Z,2.65
2023-02-14T09:05:24.465Z,2.62
2023-02-14T09:07:52.529Z,2.79
2023-02-14T09:10:20.449Z,3.01
2023-02-14T09:12:48.332Z,3.08
2023-02-14T09:15:17.595Z,3.12
2023-02-14T09:17:45.842Z,3.28
2023-02-14T09:20:16.885Z,3.43
2023-02-14T09:22:46.132Z,3.51
2023-02-14T09:25:15.792Z,3.62
2023-02-14T09:27:43.766Z,3.60
2023-02-14T09:30:12.846Z,3.81
2023-02-14T09:32:42.167Z,3.25
2023-02-14T09:35:27.249Z,3.93
2023-02-14T09:37:56.088Z,4.23
2023-02-14T09:40:25.511Z,4.35
2023-02-14T09:43:02.046Z,3.66
2023-02-14T09:45:32.083Z,4.52
2023-02-14T09:48:04.832Z,4.70
2023-02-14T09:50:38.021Z,4.89
2023-02-14T09:53:14.378Z,4.74
2023-02-14T09:55:48.299Z,5.19
2023-02-14T09:58:20.388Z,5.17
2023-02-14T10:00:53.929Z,5.00
2023-02-14T10:04:00.996Z,5.84
2023-02-14T10:06:44.016Z,5.91
2023-02-14T10:09:23.620Z,6.13
2023-02-14T10:11:51.727Z,6.13
2023-02-14T10:14:22.092Z,6.20
2023-02-14T10:16:54.835Z,6.26
2023-02-14T10:19:27.616Z,6.42
2023-02-14T10:22:00.613Z,6.31
2023-02-14T10:24:32.512Z,6.72
2023-02-14T10:27:12.043Z,6.83
2023-02-14T10:29:40.735Z,6.97
2023-02-14T10:32:15.755Z,7.09
2023-02-14T10:34:48.892Z,7.17
2023-02-14T10:37:33.342Z,7.02
2023-02-14T10:40:15.988Z,7.17
2023-02-14T10:42:55.458Z,7.44
2023-02-14T10:45:33.196Z,7.50
2023-02-14T10:48:06.958Z,7.32
2023-02-14T10:50:44.789Z,7.47
2023-02-14T10:53:20.497Z,7.15
2023-02-14T10:55:54.948Z,7.58
2023-02-14T10:58:24.690Z,7.14
2023-02-14T11:01:02.444Z,7.89
2023-02-14T11:03:31.289Z,7.92
2023-02-14T11:06:00.700Z,7.69
2023-02-14T11:08:32.768Z,7.94
2023-02-14T11:11:09.136Z,8.15
2023-02-14T11:13:39.022Z,8.30
2023-02-14T11:16:08.927Z,8.19
2023-02-14T11:18:39.609Z,7.94
2023-02-14T11:21:11.159Z,8.42
2023-02-14T11:23:42.199Z,8.53
2023-02-14T11:26:16.467Z,8.00
2023-02-14T11:28:53.296Z,8.67
2023-02-14T11:31:30.496Z,8.73
2023-02-14T11:33:59.723Z,8.78
2023-02-14T11:36:30.666Z,8.74
2023-02-14T11:39:10.081Z,8.83
2023-02-14T11:41:48.447Z,8.75
2023-02-14T11:44:22.821Z,8.79
2023-02-14T11:46:53.846Z,8.91
2023-02-14T11:49:31.575Z,8.89
2023-02-14T11:52:10.448Z,8.98
2023-02-14T11:54:40.563Z,8.98
2023-02-14T11:57:13.322Z,8.65
2023-02-14T11:59:45.107Z,9.02
2023-02-14T12:02:25.005Z,9.06
2023-02-14T12:04:57.062Z,9.07
2023-02-14T12:07:30.670Z,9.17
2023-02-14T12:10:24.298Z,9.00
2023-02-14T12:12:55.867Z,9.34
2023-02-14T12:15:34.368Z,9.33
2023-02-14T12:18:30.934Z,9.39
2023-02-14T12:21:05.328Z,9.45
2023-02-14T12:23:41.988Z,9.43
2023-02-14T12:26:18.888Z,9.46
2023-02-14T12:28:51.171Z,9.54
2023-02-14T12:31:20.308Z,9.60
2023-02-14T12:33:50.458Z,9.60
2023-02-14T12:36:29.685Z,9.74
2023-02-14T12:39:08.456Z,9.89
2023-02-14T12:41:47.121Z,9.81
2023-02-14T12:44:22.405Z,9.75
2023-02-14T12:47:11.277Z,9.87
2023-02-14T12:50:00.362Z,9.88
2023-02-14T12:52:45.334Z,9.90
2023-02-14T12:55:32.277Z,9.86
2023-02-14T12:58:07.088Z,9.93
2023-02-14T13:00:52.380Z,9.90
2023-02-14T13:04:02.953Z,9.93
2023-02-14T13:06:32.050Z,10.05
2023-02-14T13:09:14.658Z,10.16
2023-02-14T13:11:52.918Z,10.14
2023-02-14T13:14:44.069Z,9.66
2023-02-14T13:17:21.553Z,9.57
2023-02-14T13:19:58.747Z,10.17
2023-02-14T13:22:30.950Z,10.01
2023-02-14T13:25:02.567Z,10.31
2023-02-14T13:27:34.051Z,9.63
2023-02-14T13:30:06.271Z,10.36
2023-02-14T13:32:40.064Z,10.20
2023-02-14T13:35:09.292Z,10.16
2023-02-14T13:37:38.142Z,10.23
2023-02-14T13:40:09.433Z,10.21
2023-02-14T13:42:56.438Z,10.17
2023-02-14T13:45:57.768Z,10.24
2023-02-14T13:48:27.548Z,10.04
2023-02-14T13:50:58.518Z,10.21
2023-02-14T13:53:38.866Z,10.25
2023-02-14T13:56:35.707Z,10.28
2023-02-14T13:59:06.298Z,9.76
2023-02-14T14:01:40.709Z,10.22
2023-02-14T14:04:35.151Z,10.13
2023-02-14T14:07:23.202Z,10.28
2023-02-14T14:10:02.780Z,10.34
2023-02-14T14:12:42.637Z,10.32
2023-02-14T14:15:16.653Z,10.22
2023-02-14T14:17:47.721Z,10.18
2023-02-14T14:20:47.776Z,10.00
2023-02-14T14:23:34.816Z,10.17
2023-02-14T14:26:03.328Z,9.77
2023-02-14T14:28:34.320Z,10.00
2023-02-14T14:31:02.406Z,10.05
2023-02-14T14:33:32.511Z,10.09
2023-02-14T14:36:03.094Z,10.05
2023-02-14T14:38:32.313Z,10.07
2023-02-14T14:41:01.057Z,9.78
2023-02-14T14:43:34.595Z,10.02
2023-02-14T14:46:04.350Z,9.99
2023-02-14T14:48:36.942Z,9.98
2023-02-14T14:51:07.151Z,9.98
2023-02-14T14:53:44.349Z,9.66
2023-02-14T14:56:13.978Z,9.87
2023-02-14T14:58:43.327Z,9.70
2023-02-14T15:01:21.188Z,9.87
2023-02-14T15:03:49.892Z,9.86
2023-02-14T15:06:22.301Z,9.77
2023-02-14T15:08:51.463Z,9.65
2023-02-14T15:11:41.838Z,9.72
2023-02-14T15:14:12.682Z,9.58
2023-02-14T15:16:46.621Z,9.57
2023-02-14T15:19:22.990Z,9.58
2023-02-14T15:21:51.850Z,9.33
2023-02-14T15:24:21.240Z,9.40
2023-02-14T15:26:53.413Z,9.41
2023-02-14T15:29:25.275Z,9.31
2023-02-14T15:31:54.259Z,9.21
2023-02-14T15:34:25.492Z,9.12
2023-02-14T15:36:57.591Z,9.08
2023-02-14T15:39:33.641Z,8.95
2023-02-14T15:42:01.546Z,8.96
2023-02-14T15:44:31.102Z,8.89
2023-02-14T15:47:03.284Z,8.72
2023-02-14T15:49:37.197Z,8.66
2023-02-14T15:52:07.676Z,8.57
2023-02-14T15:54:39.185Z,8.46
2023-02-14T15:57:17.374Z,8.09
2023-02-14T15:59:47.705Z,8.30
2023-02-14T16:02:27.082Z,8.11
2023-02-14T16:04:55.426Z,7.38
2023-02-14T16:07:25.962Z,7.49
2023-02-14T16:10:20.866Z,8.05
2023-02-14T16:12:57.636Z,7.97
2023-02-14T16:15:28.685Z,7.85
2023-02-14T16:17:56.534Z,7.78
2023-02-14T16:20:38.451Z,7.71
2023-02-14T16:23:21.261Z,7.55
2023-02-14T16:25:49.511Z,7.45
2023-02-14T16:28:18.170Z,7.20
2023-02-14T16:30:54.063Z,6.14
2023-02-14T16:33:24.611Z,7.05
2023-02-14T16:35:52.698Z,6.76
2023-02-14T16:38:22.757Z,7.01
2023-02-14T16:40:53.409Z,6.81
2023-02-14T16:43:22.160Z,6.08
2023-02-14T16:45:51.670Z,6.49
2023-02-14T16:48:19.667Z,6.37
2023-02-14T16:50:47.987Z,6.37
2023-02-14T16:53:25.979Z,6.13
2023-02-14T16:55:55.516Z,6.24
2023-02-14T16:58:27.870Z,5.77
2023-02-14T17:00:58.743Z,6.20
2023-02-14T17:03:27.341Z,6.06
2023-02-14T17:05:56.747Z,5.89
2023-02-14T17:08:25.458Z,4.68
2023-02-14T17:10:53.862Z,5.86
2023-02-14T17:13:25.270Z,5.77
2023-02-14T17:15:53.930Z,5.37
2023-02-14T17:18:25.634Z,5.68
2023-02-14T17:20:53.642Z,5.47
2023-02-14T17:23:23.425Z,5.51
2023-02-14T17:25:51.776Z,5.35
2023-02-14T17:28:19.957Z,5.37
2023-02-14T17:30:48.013Z,5.25
2023-02-14T17:33:16.198Z,5.03
2023-02-14T17:35:45.546Z,4.71
2023-02-14T17:38:13.424Z,4.88
2023-02-14T17:40:41.620Z,4.62
2023-02-14T17:43:09.700Z,5.01
2023-02-14T17:45:37.784Z,4.93
2023-02-14T17:48:06.068Z,4.62
2023-02-14T17:50:34.007Z,4.68
2023-02-14T17:53:03.299Z,3.20
2023-02-14T17:55:31.216Z,4.62
2023-02-14T17:57:59.129Z,4.53
2023-02-14T18:00:27.257Z,4.57
2023-02-14T18:02:55.413Z,4.43
2023-02-14T18:05:23.629Z,4.27
2023-02-14T18:07:53.080Z,3.99
2023-02-14T18:10:22.498Z,4.49
2023-02-14T18:12:50.389Z,4.54
2023-02-14T18:15:18.298Z,4.50
2023-02-14T18:17:50.343Z,4.09
2023-02-14T18:20:18.597Z,4.14
2023-02-14T18:22:46.669Z,3.79
2023-02-14T18:25:14.457Z,4.03
2023-02-14T18:27:43.815Z,3.97
2023-02-14T18:30:12.542Z,3.82
2023-02-14T18:32:40.710Z,3.61
2023-02-14T18:35:09.027Z,3.61
2023-02-14T18:37:36.890Z,3.57
2023-02-14T18:40:04.903Z,3.49
2023-02-14T18:42:32.759Z,3.32
2023-02-14T18:45:02.081Z,3.45
2023-02-14T18:47:30.000Z,3.21
2023-02-14T18:49:57.928Z,3.28
2023-02-14T18:52:26.234Z,3.37
2023-02-14T18:54:54.156Z,3.38
2023-02-14T18:57:21.972Z,3.06
2023-02-14T18:59:49.876Z,3.28
2023-02-14T19:02:19.471Z,3.43
2023-02-14T19:04:47.563Z,3.44
2023-02-14T19:07:15.621Z,3.38
2023-02-14T19:09:43.711Z,3.07
2023-02-14T19:12:11.751Z,3.25
2023-02-14T19:14:39.993Z,3.12
2023-02-14T19:17:07.993Z,3.07
2023-02-14T19:19:37.454Z,3.14
2023-02-14T19:22:05.773Z,3.01
2023-02-14T19:24:33.704Z,3.11
2023-02-14T19:27:01.608Z,3.03
2023-02-14T19:29:29.398Z,3.11
2023-02-14T19:31:57.816Z,3.04
2023-02-14T19:34:29.492Z,3.02
2023-02-14T19:37:02.383Z,2.94
2023-02-14T19:39:32.441Z,2.95
2023-02-14T19:42:01.294Z,2.73
2023-02-14T19:44:31.027Z,2.74
2023-02-14T19:47:04.149Z,2.61
2023-02-14T19:49:36.043Z,1.49
2023-02-14T19:52:09.509Z,2.86
2023-02-14T19:54:42.121Z,2.43
2023-02-14T19:57:13.873Z,2.77
2023-02-14T19:59:42.012Z,2.65
2023-02-14T20:02:14.831Z,2.78
2023-02-14T20:04:42.688Z,2.79
2023-02-14T20:07:12.899Z,2.55
2023-02-14T20:09:40.667Z,2.77
2023-02-14T20:12:08.875Z,2.73
2023-02-14T20:14:50.187Z,2.78
2023-02-14T20:17:19.309Z,2.63
2023-02-14T20:19:47.290Z,2.61
2023-02-14T20:22:16.556Z,1.75
2023-02-14T20:24:44.469Z,1.86
2023-02-14T20:27:12.464Z,2.54
2023-02-14T20:29:43.277Z,2.64
2023-02-14T20:32:16.674Z,2.67
2023-02-14T20:34:44.494Z,2.54
2023-02-14T20:37:12.766Z,2.85
2023-02-14T20:39:42.177Z,2.66
2023-02-14T20:42:10.706Z,2.50
2023-02-14T20:44:38.685Z,2.54
2023-02-14T20:47:06.748Z,2.58
2023-02-14T20:49:35.824Z,2.63
2023-02-14T20:52:04.793Z,2.66
2023-02-14T20:54:32.876Z,2.33
2023-02-14T20:57:02.133Z,2.26
2023-02-14T20:59:30.094Z,2.71
2023-02-14T21:02:00.614Z,2.67
2023-02-14T21:04:29.873Z,2.36
2023-02-14T21:07:00.245Z,2.46
2023-02-14T21:09:28.335Z,2.46
2023-02-14T21:11:58.042Z,1.40
2023-02-14T21:14:27.668Z,2.39
2023-02-14T21:16:55.595Z,2.48
2023-02-14T21:19:23.453Z,2.19
2023-02-14T21:21:51.756Z,2.33
2023-02-14T21:24:20.049Z,2.19
2023-02-14T21:26:48.182Z,2.25
2023-02-14T21:29:16.092Z,2.38
2023-02-14T21:31:45.675Z,2.25
2023-02-14T21:34:16.188Z,2.27
2023-02-14T21:36:44.239Z,2.26
2023-02-14T21:39:12.173Z,2.28
2023-02-14T21:41:40.387Z,2.43
2023-02-14T21:44:08.542Z,2.43
2023-02-14T21:46:39.423Z,2.35
2023-02-14T21:49:26.309Z,2.45
2023-02-14T21:51:54.243Z,2.18
2023-02-14T21:54:22.362Z,2.06
2023-02-14T21:56:50.412Z,2.22
2023-02-14T21:59:18.260Z,2.12
2023-02-14T22:01:46.480Z,1.26
2023-02-14T22:04:16.852Z,2.00
2023-02-14T22:06:44.920Z,2.28
2023-02-14T22:09:15.044Z,2.15
2023-02-14T22:11:42.874Z,0.93
2023-02-14T22:14:11.238Z,1.88
2023-02-14T22:16:39.265Z,1.89
2023-02-14T22:19:08.497Z,0.16
2023-02-14T22:21:38.069Z,1.88
2023-02-14T22:24:06.402Z,1.86
2023-02-14T22:26:38.626Z,2.05
2023-02-14T22:29:07.573Z,2.15
2023-02-14T22:31:38.659Z,2.31
2023-02-14T22:34:08.228Z,2.55
2023-02-14T22:36:37.484Z,2.64
2023-02-14T22:39:06.128Z,2.92
2023-02-14T22:41:37.667Z,2.97
2023-02-14T22:44:06.653Z,2.95
2023-02-14T22:46:36.718Z,2.98
2023-02-14T22:49:05.286Z,3.06
2023-02-14T22:51:35.513Z,2.74
2023-02-14T22:54:05.777Z,2.95
2023-02-14T22:56:35.404Z,2.91
2023-02-14T22:59:06.797Z,1.71
2023-02-14T23:01:37.132Z,2.66
2023-02-14T23:04:06.001Z,2.94
2023-02-14T23:06:35.861Z,2.90
2023-02-14T23:09:06.879Z,2.72
2023-02-14T23:11:37.227Z,1.17
2023-02-14T23:14:23.419Z,1.64
2023-02-14T23:17:21.059Z,2.56
2023-02-14T23:20:06.722Z,2.53
2023-02-14T23:22:36.491Z,2.42
2023-02-14T23:25:08.176Z,2.61
2023-02-14T23:27:38.545Z,2.60
2023-02-14T23:30:08.579Z,2.62
2023-02-14T23:32:36.525Z,2.54
2023-02-14T23:35:04.747Z,2.49
2023-02-14T23:37:33.679Z,2.46
2023-02-14T23:40:01.533Z,1.76
2023-02-14T23:42:30.764Z,2.37
2023-02-14T23:45:18.778Z,2.24
2023-02-14T23:47:46.670Z,1.33
2023-02-14T23:50:14.516Z,1.36
2023-02-14T23:52:44.407Z,1.17
2023-02-14T23:55:12.525Z,2.29
2023-02-14T23:57:41.969Z,2.17
